Kai Xuan — BHWZ — position and weather

sailwx.info

Track history (hours):
 
Tides and Currents Weather Stations Pressure Air Temp Water Temp Dewpoint Dewpoint Depression Visibility Wind Speed Wind Dir Waves Ship Positions

Kai Xuan

Last reported at 2014-Jul-23 06:33 UTC. Time now 2014-Jul-30 17:11 UTC.
Position N 21°49' E 113°05'.

Length 77 m; draft 2.5 m.

Type: Tanker. MMSI: 412351760.

Date/timePositionNaut miles runAvg speedWind from/ knotsBaromVisibWave heightAir tempDewpointWater temp
2014-Jul-23 06:33N 21°49' E 113°05'6 6.0
2014-Jul-23 05:32N 21°49' E 113°11'27 6.2
2014-Jul-23 01:10N 22°03' E 113°36'4 7.0
2014-Jul-23 00:33N 22°07' E 113°38'10 0.4
2014-Jul-22 00:09N 22°08' E 113°27'1 0.9
2014-Jul-21 22:31N 22°09' E 113°26'0 0.0
2014-Jul-21 21:33N 22°09' E 113°26'0 0.0
2014-Jul-21 20:32N 22°09' E 113°26'0 0.0
2014-Jul-21 20:17N 22°09' E 113°26'0 0.0
2014-Jul-21 19:21N 22°09' E 113°26'0 0.0
2014-Jul-21 13:17N 22°09' E 113°26'6 2.3
2014-Jul-21 10:32N 22°11' E 113°33'6 6.0
2014-Jul-21 09:33N 22°07' E 113°37'8 7.2
2014-Jul-21 08:28N 22°00' E 113°32'17 7.5
2014-Jul-21 06:16N 21°52' E 113°17'5 7.5
2014-Jul-21 05:33N 21°53' E 113°11'0 0.1
2014-Jul-21 04:33N 21°53' E 113°11'0 0.0
2014-Jul-21 03:33N 21°53' E 113°11'0 0.0
2014-Jul-21 02:33N 21°53' E 113°11'0 0.0
2014-Jul-21 01:33N 21°53' E 113°11'0 0.0
2014-Jul-21 00:33N 21°53' E 113°11'4 3.7
2014-Jul-20 23:33N 21°50' E 113°10'7 7.4
2014-Jul-20 22:33N 21°49' E 113°02'  
2014-Jul-15 07:30N 21°49' E 113°02'6 6.4
2014-Jul-15 06:33N 21°49' E 113°08'5 5.2
2014-Jul-15 05:33N 21°53' E 113°12'9 8.6
2014-Jul-15 04:33N 21°59' E 113°07'8 6.4
2014-Jul-15 03:19N 22°07' E 113°06'16 5.4
2014-Jul-15 00:26N 22°21' E 113°13'  
Track history (hours):
 
Tides and Currents Weather Stations Pressure Air Temp Water Temp Dewpoint Dewpoint Depression Visibility Wind Speed Wind Dir Waves Ship Positions

Kai Xuan

Last reported at 2014-Jul-23 06:33 UTC. Time now 2014-Jul-30 17:11 UTC.
Position N 21°49' E 113°05'.

Length 77 m; draft 2.5 m.

Type: Tanker. MMSI: 412351760.

Date/timePositionNaut miles runAvg speedWind from/ knotsBaromVisibWave heightAir tempDewpointWater temp
2014-Jul-23 06:33N 21°49' E 113°05'6 6.0
2014-Jul-23 05:32N 21°49' E 113°11'27 6.2
2014-Jul-23 01:10N 22°03' E 113°36'4 7.0
2014-Jul-23 00:33N 22°07' E 113°38'10 0.4
2014-Jul-22 00:09N 22°08' E 113°27'1 0.9
2014-Jul-21 22:31N 22°09' E 113°26'0 0.0
2014-Jul-21 21:33N 22°09' E 113°26'0 0.0
2014-Jul-21 20:32N 22°09' E 113°26'0 0.0
2014-Jul-21 20:17N 22°09' E 113°26'0 0.0
2014-Jul-21 19:21N 22°09' E 113°26'0 0.0
2014-Jul-21 13:17N 22°09' E 113°26'6 2.3
2014-Jul-21 10:32N 22°11' E 113°33'6 6.0
2014-Jul-21 09:33N 22°07' E 113°37'8 7.2
2014-Jul-21 08:28N 22°00' E 113°32'17 7.5
2014-Jul-21 06:16N 21°52' E 113°17'5 7.5
2014-Jul-21 05:33N 21°53' E 113°11'0 0.1
2014-Jul-21 04:33N 21°53' E 113°11'0 0.0
2014-Jul-21 03:33N 21°53' E 113°11'0 0.0
2014-Jul-21 02:33N 21°53' E 113°11'0 0.0
2014-Jul-21 01:33N 21°53' E 113°11'0 0.0
2014-Jul-21 00:33N 21°53' E 113°11'4 3.7
2014-Jul-20 23:33N 21°50' E 113°10'7 7.4
2014-Jul-20 22:33N 21°49' E 113°02'  
2014-Jul-15 07:30N 21°49' E 113°02'6 6.4
2014-Jul-15 06:33N 21°49' E 113°08'5 5.2
2014-Jul-15 05:33N 21°53' E 113°12'9 8.6
2014-Jul-15 04:33N 21°59' E 113°07'8 6.4
2014-Jul-15 03:19N 22°07' E 113°06'16 5.4
2014-Jul-15 00:26N 22°21' E 113°13'  

Dump ship's entire track history